Time;durP1;ratioP1;P1;durP2;ratioP2;P2;SDS_P1;SDS_P2;PMS_P1;PMS_P2;Temp;Humidity;BMP_temperature;BMP_pressure;BME280_temperature;BME280_humidity;BME280_pressure;Samples;Min_cycle;Max_cycle;Signal;HPM_P1;HPM_P2
2022/04/15 00:01:22;;;;;;;7.80;5.97;;;12.40;99.90;;;;;;5056669;28;20409;-79
2022/04/15 00:03:49;;;;;;;12.90;6.67;;;12.40;99.90;;;;;;5056882;28;20546;-78
2022/04/15 00:06:18;;;;;;;8.07;6.10;;;12.40;99.90;;;;;;5056119;28;20456;-78
2022/04/15 00:08:44;;;;;;;11.43;6.33;;;12.40;99.90;;;;;;5056400;28;20422;-78
2022/04/15 00:11:10;;;;;;;11.43;7.00;;;12.30;99.90;;;;;;5056719;28;20950;-77
2022/04/15 00:13:36;;;;;;;10.70;6.60;;;12.30;99.90;;;;;;5056600;28;20179;-79
2022/04/15 00:16:04;;;;;;;8.77;6.53;;;12.30;99.90;;;;;;5055775;28;20464;-79
2022/04/15 00:18:31;;;;;;;8.00;5.93;;;12.30;99.90;;;;;;5056106;28;20418;-79
2022/04/15 00:20:57;;;;;;;9.10;6.20;;;12.30;99.90;;;;;;5055985;28;20417;-78
2022/04/15 00:23:22;;;;;;;9.97;6.10;;;12.20;99.90;;;;;;5055837;28;20409;-79
2022/04/15 00:25:53;;;;;;;7.50;6.37;;;12.20;99.90;;;;;;5055937;28;20678;-79
2022/04/15 00:28:19;;;;;;;8.23;6.03;;;12.10;99.90;;;;;;5055756;28;20186;-78
2022/04/15 00:30:45;;;;;;;9.30;6.47;;;12.10;99.90;;;;;;5055644;28;20421;-78
2022/04/15 00:33:11;;;;;;;10.30;6.13;;;12.00;99.90;;;;;;5055852;28;20612;-79
2022/04/15 00:35:37;;;;;;;11.47;7.83;;;12.00;99.90;;;;;;5056081;28;20210;-78
2022/04/15 00:38:03;;;;;;;9.90;6.23;;;11.90;99.90;;;;;;5055238;28;20186;-78
2022/04/15 00:40:29;;;;;;;9.40;7.37;;;12.00;99.90;;;;;;5055581;28;20794;-78
2022/04/15 00:42:54;;;;;;;10.30;7.10;;;11.90;99.90;;;;;;5055397;28;20417;-78
2022/04/15 00:45:22;;;;;;;11.83;7.73;;;11.90;99.90;;;;;;5039593;28;20206;-78
2022/04/15 00:47:54;;;;;;;10.37;7.33;;;11.80;99.90;;;;;;5055633;28;20440;-78
2022/04/15 00:50:40;;;;;;;10.93;7.57;;;11.80;99.90;;;;;;5054619;28;20844;-78
2022/04/15 00:53:11;;;;;;;8.93;5.93;;;11.80;99.90;;;;;;5055257;28;20440;-79
2022/04/15 00:55:39;;;;;;;9.70;6.33;;;11.70;99.90;;;;;;5054937;28;20469;-78
2022/04/15 00:58:06;;;;;;;9.70;6.53;;;11.70;99.90;;;;;;5055700;28;20422;-79
2022/04/15 01:00:35;;;;;;;10.20;8.27;;;11.60;99.90;;;;;;5055543;28;20512;-78
2022/04/15 01:03:04;;;;;;;12.17;8.27;;;11.60;99.90;;;;;;5055843;28;20790;-78
2022/04/15 01:05:30;;;;;;;11.10;7.63;;;11.60;99.90;;;;;;5054914;28;20528;-77
2022/04/15 01:07:57;;;;;;;9.00;6.20;;;11.50;99.90;;;;;;5055435;28;20449;-78
2022/04/15 01:10:25;;;;;;;11.50;7.10;;;11.50;99.90;;;;;;5055373;28;20232;-78
2022/04/15 01:12:56;;;;;;;11.67;7.20;;;11.40;99.90;;;;;;5055309;28;20470;-79
2022/04/15 01:15:25;;;;;;;10.87;8.20;;;11.40;99.90;;;;;;5055575;28;20474;-79
2022/04/15 01:17:51;;;;;;;15.00;9.30;;;11.40;99.90;;;;;;5055254;28;20413;-78
2022/04/15 01:20:18;;;;;;;15.13;8.57;;;11.30;99.90;;;;;;5055266;28;21042;-78
2022/04/15 01:22:45;;;;;;;8.90;7.20;;;11.10;99.90;;;;;;5055432;28;20214;-78
2022/04/15 01:25:13;;;;;;;11.17;7.90;;;11.10;99.90;;;;;;5055209;28;20429;-78
2022/04/15 01:27:42;;;;;;;11.37;8.03;;;11.20;99.90;;;;;;5056549;28;20451;-79
2022/04/15 01:30:14;;;;;;;14.17;8.20;;;11.20;99.90;;;;;;5058995;28;20436;-79
2022/04/15 01:32:41;;;;;;;11.80;8.20;;;11.10;99.90;;;;;;5059227;28;20421;-78
2022/04/15 01:35:08;;;;;;;14.87;9.00;;;11.20;99.90;;;;;;5059115;28;20425;-78
2022/04/15 01:37:35;;;;;;;10.80;7.90;;;11.20;99.90;;;;;;5058684;28;20503;-78
2022/04/15 01:40:03;;;;;;;9.50;7.93;;;11.20;99.90;;;;;;5059094;28;20434;-78
2022/04/15 01:42:28;;;;;;;11.63;8.27;;;11.20;99.90;;;;;;5058584;28;20519;-79
2022/04/15 01:44:54;;;;;;;12.80;8.60;;;11.20;99.90;;;;;;5058909;28;20507;-78
2022/04/15 01:47:20;;;;;;;12.20;8.77;;;11.30;99.90;;;;;;5058739;28;20199;-79
2022/04/15 01:49:46;;;;;;;15.23;8.30;;;11.20;99.90;;;;;;5058650;28;20256;-78
2022/04/15 01:52:11;;;;;;;13.53;8.13;;;11.20;99.90;;;;;;5058149;28;20230;-79
2022/04/15 01:54:40;;;;;;;14.40;8.90;;;11.20;99.90;;;;;;5058260;28;20190;-77
2022/04/15 01:57:06;;;;;;;12.63;8.77;;;11.30;99.90;;;;;;5058321;28;20301;-78
2022/04/15 01:59:32;;;;;;;13.90;8.90;;;11.30;99.90;;;;;;5058716;28;20857;-78
2022/04/15 02:01:57;;;;;;;13.70;9.30;;;11.20;99.90;;;;;;5058543;28;20293;-79
2022/04/15 02:04:25;;;;;;;13.00;9.07;;;11.10;99.90;;;;;;5058517;28;20194;-77
2022/04/15 02:06:52;;;;;;;12.77;9.10;;;11.10;99.90;;;;;;5058448;28;20593;-78
2022/04/15 02:09:18;;;;;;;13.40;9.50;;;11.10;99.90;;;;;;5058090;28;20504;-78
2022/04/15 02:11:44;;;;;;;10.77;8.13;;;11.10;99.90;;;;;;5058158;28;20429;-78
2022/04/15 02:14:10;;;;;;;12.60;9.27;;;11.10;99.90;;;;;;5058171;28;20421;-78
2022/04/15 02:16:36;;;;;;;14.80;8.83;;;11.00;99.90;;;;;;5057712;28;20475;-79
2022/04/15 02:19:03;;;;;;;13.10;9.20;;;10.90;99.90;;;;;;5057665;28;20417;-79
2022/04/15 02:21:28;;;;;;;13.50;8.40;;;10.90;99.90;;;;;;5057679;28;20425;-79
2022/04/15 02:23:54;;;;;;;16.30;10.60;;;10.90;99.90;;;;;;5057826;28;20504;-79
2022/04/15 02:26:20;;;;;;;14.23;9.40;;;10.80;99.90;;;;;;5057720;28;20207;-79
2022/04/15 02:28:46;;;;;;;13.97;8.93;;;10.90;99.90;;;;;;5057468;28;20585;-78
2022/04/15 02:31:11;;;;;;;12.70;9.43;;;10.80;99.90;;;;;;5057648;28;20190;-78
2022/04/15 02:33:37;;;;;;;12.10;8.37;;;10.80;99.90;;;;;;5057190;28;20807;-78
2022/04/15 02:36:03;;;;;;;13.03;9.20;;;10.70;99.90;;;;;;5057008;28;20229;-78
2022/04/15 02:38:29;;;;;;;18.80;9.90;;;10.70;99.90;;;;;;5056989;28;20182;-78
2022/04/15 02:40:56;;;;;;;13.00;7.77;;;10.70;99.90;;;;;;5057039;28;20486;-78
2022/04/15 02:43:25;;;;;;;11.20;8.80;;;10.60;99.90;;;;;;5056996;28;20414;-78
2022/04/15 02:45:51;;;;;;;12.97;8.97;;;10.60;99.90;;;;;;5056896;28;20452;-79
2022/04/15 02:48:17;;;;;;;14.17;10.70;;;10.50;99.90;;;;;;5056695;28;20428;-78
2022/04/15 02:50:44;;;;;;;15.80;9.07;;;10.40;99.90;;;;;;5056982;28;20428;-78
2022/04/15 02:53:11;;;;;;;14.10;10.20;;;10.40;99.90;;;;;;5065884;23;20715;-81
2022/04/15 02:55:36;;;;;;;14.70;9.50;;;10.40;99.90;;;;;;5055863;28;20420;-81
2022/04/15 02:58:02;;;;;;;19.73;10.23;;;10.40;99.90;;;;;;5055435;28;20445;-81
2022/04/15 03:00:28;;;;;;;15.20;9.17;;;10.40;99.90;;;;;;5073799;28;20168;-81
2022/04/15 03:02:53;;;;;;;14.00;10.60;;;10.40;99.90;;;;;;5055768;28;20195;-81
2022/04/15 03:05:19;;;;;;;15.43;10.60;;;10.30;99.90;;;;;;5073707;28;20185;-81
2022/04/15 03:07:44;;;;;;;13.43;9.20;;;10.30;99.90;;;;;;5055281;28;20184;-81
2022/04/15 03:10:10;;;;;;;16.27;10.47;;;10.30;99.90;;;;;;5055664;28;20182;-81
2022/04/15 03:12:37;;;;;;;16.47;10.13;;;10.30;99.90;;;;;;5055492;28;20222;-81
2022/04/15 03:15:09;;;;;;;14.67;9.50;;;10.30;99.90;;;;;;5055556;28;20541;-81
2022/04/15 03:17:35;;;;;;;17.00;9.50;;;10.30;99.90;;;;;;5054986;28;20467;-81
2022/04/15 03:20:04;;;;;;;14.20;9.77;;;10.30;99.90;;;;;;5055367;28;20409;-81
2022/04/15 03:22:34;;;;;;;15.63;9.50;;;10.20;99.90;;;;;;5073198;28;20575;-81
2022/04/15 03:24:59;;;;;;;16.00;10.07;;;10.20;99.90;;;;;;5073398;28;20907;-81
2022/04/15 03:27:25;;;;;;;14.97;10.77;;;10.20;99.90;;;;;;5055075;28;20503;-81
2022/04/15 03:29:50;;;;;;;18.20;10.97;;;10.20;99.90;;;;;;5073230;28;20532;-81
2022/04/15 03:32:16;;;;;;;14.17;10.87;;;10.10;99.90;;;;;;5073161;28;20195;-81
2022/04/15 03:34:42;;;;;;;16.87;10.60;;;10.10;99.90;;;;;;5072960;28;20282;-81
2022/04/15 03:37:07;;;;;;;15.60;10.70;;;10.10;99.90;;;;;;5072453;28;20237;-81
2022/04/15 03:39:33;;;;;;;19.30;11.70;;;10.10;99.90;;;;;;5054886;28;20183;-81
2022/04/15 03:41:58;;;;;;;16.70;10.77;;;10.00;99.90;;;;;;5072863;28;20173;-81
2022/04/15 03:44:24;;;;;;;17.30;10.63;;;10.00;99.90;;;;;;5055073;28;20170;-81
2022/04/15 03:46:49;;;;;;;16.80;9.90;;;10.00;99.90;;;;;;5072313;28;20177;-81
2022/04/15 03:49:15;;;;;;;17.30;11.40;;;10.00;99.90;;;;;;5054997;28;20183;-83
2022/04/15 03:51:40;;;;;;;17.10;10.73;;;10.00;99.90;;;;;;5054239;28;20190;-82
2022/04/15 03:54:06;;;;;;;19.23;11.07;;;10.00;99.90;;;;;;5072708;28;20190;-83
2022/04/15 03:56:32;;;;;;;15.87;10.43;;;10.00;99.90;;;;;;5054665;28;20231;-81
2022/04/15 03:58:57;;;;;;;18.27;12.27;;;10.00;99.90;;;;;;5073800;28;20173;-83
2022/04/15 04:01:24;;;;;;;18.93;11.60;;;9.90;99.90;;;;;;5055216;28;21071;-83
2022/04/15 04:03:51;;;;;;;13.17;10.70;;;9.90;99.90;;;;;;5073220;28;20274;-82
2022/04/15 04:06:17;;;;;;;15.20;9.93;;;9.90;99.90;;;;;;5072719;28;20436;-82
2022/04/15 04:08:49;;;;;;;19.43;12.17;;;9.90;99.90;;;;;;5054866;28;20786;-81
2022/04/15 04:11:19;;;;;;;17.90;10.87;;;9.90;99.90;;;;;;5055005;28;20588;-81
2022/04/15 04:13:45;;;;;;;19.83;10.90;;;9.90;99.90;;;;;;5072860;28;20992;-82
2022/04/15 04:16:12;;;;;;;18.90;11.87;;;9.80;99.90;;;;;;5048196;28;20512;-81
2022/04/15 04:18:40;;;;;;;17.93;11.67;;;9.70;99.90;;;;;;5046124;28;20864;-81
2022/04/15 04:21:07;;;;;;;14.67;10.63;;;9.60;99.90;;;;;;5054753;28;20457;-80
2022/04/15 04:23:33;;;;;;;22.47;10.97;;;9.60;99.90;;;;;;5054612;28;20434;-82
2022/04/15 04:26:00;;;;;;;15.80;11.03;;;9.60;99.90;;;;;;5054636;28;20960;-81
2022/04/15 04:28:25;;;;;;;14.60;11.17;;;9.60;99.90;;;;;;5054141;28;20431;-81
2022/04/15 04:30:52;;;;;;;15.37;10.73;;;9.60;99.90;;;;;;5054762;28;20424;-83
2022/04/15 04:33:18;;;;;;;19.97;12.30;;;9.60;99.90;;;;;;5072473;28;20191;-83
2022/04/15 04:35:44;;;;;;;16.90;11.07;;;9.70;99.90;;;;;;5072388;28;20453;-82
2022/04/15 04:38:09;;;;;;;17.60;12.00;;;9.70;99.90;;;;;;5054161;28;20439;-82
2022/04/15 04:40:35;;;;;;;18.70;11.73;;;9.70;99.90;;;;;;5072423;28;20519;-81
2022/04/15 04:43:02;;;;;;;19.27;10.90;;;9.70;99.90;;;;;;5054172;28;20329;-83
2022/04/15 04:45:29;;;;;;;20.27;11.60;;;9.70;99.90;;;;;;5054175;28;20187;-83
2022/04/15 04:47:55;;;;;;;17.90;11.40;;;9.70;99.90;;;;;;5071814;28;20402;-82
2022/04/15 04:50:21;;;;;;;17.70;11.73;;;9.70;99.90;;;;;;5054132;28;21033;-81
2022/04/15 04:52:47;;;;;;;18.50;11.63;;;9.60;99.90;;;;;;5054068;28;20484;-82
2022/04/15 04:55:14;;;;;;;15.50;10.33;;;9.70;99.90;;;;;;5054250;28;20180;-83
2022/04/15 04:57:42;;;;;;;15.83;11.03;;;9.60;99.90;;;;;;5053521;28;20648;-80
2022/04/15 05:00:10;;;;;;;20.40;11.47;;;9.60;99.90;;;;;;5072169;28;20417;-81
2022/04/15 05:02:36;;;;;;;16.07;10.90;;;9.70;99.90;;;;;;5055403;28;20508;-82
2022/04/15 05:05:02;;;;;;;18.37;11.60;;;9.70;99.90;;;;;;5058143;28;20417;-80
2022/04/15 05:07:28;;;;;;;15.67;9.77;;;9.70;99.90;;;;;;5075738;28;20405;-81
2022/04/15 05:09:54;;;;;;;14.60;10.27;;;9.70;99.90;;;;;;5057974;28;20457;-82
2022/04/15 05:12:20;;;;;;;17.73;11.97;;;9.80;99.90;;;;;;5058157;28;20225;-81
2022/04/15 05:14:45;;;;;;;15.67;10.50;;;9.90;99.90;;;;;;5058109;28;20417;-81
2022/04/15 05:17:11;;;;;;;19.07;11.03;;;10.00;99.90;;;;;;5057521;28;20688;-82
2022/04/15 05:19:36;;;;;;;16.93;9.77;;;10.00;99.90;;;;;;5057806;28;20682;-81
2022/04/15 05:22:03;;;;;;;14.37;10.00;;;10.10;99.90;;;;;;5075761;28;20673;-81
2022/04/15 05:24:28;;;;;;;18.63;12.00;;;10.10;99.90;;;;;;5057890;28;20260;-81
2022/04/15 05:26:54;;;;;;;18.83;11.73;;;10.10;99.90;;;;;;5057408;28;20485;-83
2022/04/15 05:29:19;;;;;;;20.43;11.80;;;10.10;99.90;;;;;;5058003;28;20209;-82
2022/04/15 05:31:45;;;;;;;19.60;12.00;;;10.10;99.90;;;;;;5075432;28;20181;-81
2022/04/15 05:34:11;;;;;;;15.70;11.60;;;10.20;99.90;;;;;;5057624;28;20275;-83
2022/04/15 05:36:36;;;;;;;17.00;12.17;;;10.30;99.90;;;;;;5074830;28;20263;-81
2022/04/15 05:39:02;;;;;;;22.07;12.43;;;10.30;99.90;;;;;;5057838;28;20190;-82
2022/04/15 05:41:28;;;;;;;21.97;12.70;;;10.30;99.90;;;;;;5057264;28;20178;-82
2022/04/15 05:43:54;;;;;;;16.80;11.10;;;10.40;99.90;;;;;;5057212;28;20466;-81
2022/04/15 05:46:20;;;;;;;20.70;11.67;;;10.50;99.90;;;;;;5075117;28;20550;-82
2022/04/15 05:48:46;;;;;;;16.90;12.23;;;10.40;99.90;;;;;;5057011;28;20467;-82
2022/04/15 05:51:11;;;;;;;20.30;12.00;;;10.50;99.90;;;;;;5057127;28;20183;-81
2022/04/15 05:53:37;;;;;;;19.60;11.30;;;10.50;99.90;;;;;;5056934;28;20215;-81
2022/04/15 05:56:04;;;;;;;20.10;12.97;;;10.60;99.90;;;;;;5056910;28;20264;-81
2022/04/15 05:58:29;;;;;;;20.83;12.23;;;10.60;99.90;;;;;;5056635;28;20587;-81
2022/04/15 06:00:56;;;;;;;15.80;10.80;;;10.50;99.90;;;;;;5056952;28;20496;-81
2022/04/15 06:03:22;;;;;;;23.37;13.70;;;10.60;99.90;;;;;;5056729;28;20340;-81
2022/04/15 06:05:49;;;;;;;19.10;11.93;;;10.60;99.90;;;;;;5074754;28;20418;-82
2022/04/15 06:08:15;;;;;;;19.33;12.67;;;10.70;99.90;;;;;;5056669;28;20811;-82
2022/04/15 06:10:41;;;;;;;17.80;12.33;;;10.60;99.90;;;;;;5056906;28;20428;-82
2022/04/15 06:13:10;;;;;;;18.00;12.60;;;10.60;99.90;;;;;;5070155;28;20425;-81
2022/04/15 06:15:41;;;;;;;20.10;13.53;;;10.70;99.90;;;;;;5081768;28;20510;-84
2022/04/15 06:18:07;;;;;;;25.30;14.17;;;10.70;99.90;;;;;;5080503;28;20409;-84
2022/04/15 06:20:32;;;;;;;24.90;13.00;;;10.90;99.90;;;;;;5062471;28;20453;-83
2022/04/15 06:22:58;;;;;;;19.53;12.17;;;11.00;99.90;;;;;;5079672;28;20484;-83
2022/04/15 06:25:24;;;;;;;20.30;13.57;;;11.10;99.90;;;;;;5061744;28;20188;-83
2022/04/15 06:27:51;;;;;;;18.00;13.17;;;11.20;99.90;;;;;;5052217;28;20253;-84
2022/04/15 06:30:16;;;;;;;20.83;14.40;;;11.30;99.90;;;;;;5068913;28;20175;-83
2022/04/15 06:32:42;;;;;;;18.67;12.43;;;11.50;99.90;;;;;;5080201;28;20440;-82
2022/04/15 06:35:08;;;;;;;21.30;14.00;;;11.50;99.90;;;;;;5079920;28;20509;-83
2022/04/15 06:37:34;;;;;;;21.90;12.77;;;11.50;99.90;;;;;;5061959;28;20210;-83
2022/04/15 06:40:00;;;;;;;19.73;12.70;;;11.60;99.90;;;;;;5079845;28;20819;-84
2022/04/15 06:42:27;;;;;;;19.50;12.93;;;11.70;99.90;;;;;;5061290;28;20437;-83
2022/04/15 06:44:54;;;;;;;18.37;12.33;;;12.00;99.90;;;;;;5079303;28;20529;-84
2022/04/15 06:47:20;;;;;;;16.20;10.37;;;11.90;99.90;;;;;;5061025;28;20475;-84
2022/04/15 06:49:47;;;;;;;16.83;12.13;;;11.90;99.90;;;;;;5060439;28;20426;-83
2022/04/15 06:52:17;;;;;;;16.50;11.40;;;12.00;99.90;;;;;;5059982;28;20457;-82
2022/04/15 06:54:43;;;;;;;14.60;10.13;;;12.10;99.90;;;;;;5077755;28;20796;-83
2022/04/15 06:57:09;;;;;;;19.30;11.50;;;12.20;99.90;;;;;;5059607;28;20457;-83
2022/04/15 06:59:35;;;;;;;18.03;10.87;;;12.30;99.90;;;;;;5059574;28;20723;-81
2022/04/15 07:02:01;;;;;;;13.10;9.90;;;12.40;99.90;;;;;;5056716;28;20418;-82
2022/04/15 07:04:28;;;;;;;16.80;9.63;;;12.60;99.90;;;;;;5057680;28;20233;-81
2022/04/15 07:06:54;;;;;;;16.23;9.40;;;12.90;99.90;;;;;;5058435;28;20520;-83
2022/04/15 07:09:20;;;;;;;15.07;9.13;;;13.10;99.90;;;;;;5060219;28;20453;-83
2022/04/15 07:11:46;;;;;;;13.57;8.50;;;13.20;99.90;;;;;;5059221;28;20421;-81
2022/04/15 07:14:12;;;;;;;18.90;10.53;;;13.30;99.90;;;;;;5059020;28;20609;-83
2022/04/15 07:16:38;;;;;;;13.70;9.33;;;13.30;99.90;;;;;;5075670;28;20460;-82
2022/04/15 07:19:04;;;;;;;15.07;10.87;;;13.20;99.90;;;;;;5059064;28;20650;-82
2022/04/15 07:21:31;;;;;;;21.60;14.03;;;13.10;99.90;;;;;;5059099;28;20183;-82
2022/04/15 07:23:57;;;;;;;23.17;15.23;;;13.30;99.90;;;;;;5046496;28;20481;-81
2022/04/15 07:26:23;;;;;;;24.87;13.83;;;13.30;99.90;;;;;;5061693;28;20426;-80
2022/04/15 07:28:48;;;;;;;23.13;14.53;;;13.50;99.90;;;;;;5075787;28;20467;-80
2022/04/15 07:31:14;;;;;;;23.73;15.37;;;13.80;99.90;;;;;;5076138;28;20179;-81
2022/04/15 07:33:39;;;;;;;28.00;17.10;;;13.80;99.90;;;;;;5075954;28;20591;-80
2022/04/15 07:36:42;;;;;;;28.07;16.83;;;13.60;99.90;;;;;;5057657;28;20642;-80
2022/04/15 07:38:51;;;;;;;31.27;17.67;;;13.50;99.90;;;;;;5075252;28;20183;-80
2022/04/15 07:41:16;;;;;;;34.23;20.07;;;13.60;99.90;;;;;;5056939;28;20429;-81
2022/04/15 07:43:42;;;;;;;39.97;20.93;;;13.70;99.90;;;;;;5055509;28;20194;-81
2022/04/15 07:46:08;;;;;;;40.10;21.20;;;13.30;99.90;;;;;;5073344;28;20206;-80
2022/04/15 07:48:33;;;;;;;47.50;22.30;;;13.00;99.90;;;;;;5054773;28;20880;-80
2022/04/15 07:50:59;;;;;;;38.47;20.40;;;13.00;99.90;;;;;;5055711;28;20277;-80
2022/04/15 07:53:24;;;;;;;39.57;21.47;;;13.20;99.90;;;;;;5073117;28;20241;-79
2022/04/15 07:55:50;;;;;;;35.57;21.43;;;13.20;99.90;;;;;;5073454;28;20344;-80
2022/04/15 07:58:15;;;;;;;41.80;22.90;;;13.10;99.90;;;;;;5054916;28;20185;-79
2022/04/15 08:00:42;;;;;;;40.73;22.83;;;13.10;99.90;;;;;;5055518;28;20175;-80
2022/04/15 08:03:08;;;;;;;45.47;23.83;;;13.20;99.90;;;;;;5073121;28;20280;-79
2022/04/15 08:05:34;;;;;;;39.53;22.80;;;13.20;99.90;;;;;;5055010;28;20455;-79
2022/04/15 08:07:59;;;;;;;45.23;21.97;;;13.30;99.90;;;;;;5072690;28;20183;-79
2022/04/15 08:10:25;;;;;;;40.17;20.33;;;13.40;99.90;;;;;;5073245;28;20544;-79
2022/04/15 08:12:51;;;;;;;39.50;21.87;;;13.60;99.90;;;;;;5054898;28;20602;-79
2022/04/15 08:15:17;;;;;;;38.60;22.70;;;13.40;99.90;;;;;;5054933;28;20209;-79
2022/04/15 08:17:42;;;;;;;38.33;22.10;;;13.40;99.90;;;;;;5054490;28;20210;-79
2022/04/15 08:20:08;;;;;;;38.20;21.37;;;13.50;99.90;;;;;;5073022;28;20830;-80
2022/04/15 08:22:37;;;;;;;35.10;21.30;;;13.60;99.90;;;;;;5054616;28;20195;-79
2022/04/15 08:25:04;;;;;;;32.37;20.07;;;13.70;99.90;;;;;;5072589;28;20406;-79
2022/04/15 08:27:29;;;;;;;39.40;21.67;;;13.50;99.90;;;;;;5046871;28;21410;-81
2022/04/15 08:29:55;;;;;;;35.93;21.53;;;13.50;99.90;;;;;;5053580;28;20524;-81
2022/04/15 08:32:21;;;;;;;44.67;22.67;;;13.30;99.90;;;;;;5072589;28;20199;-80
2022/04/15 08:34:47;;;;;;;36.67;21.87;;;13.00;99.90;;;;;;5054322;28;20183;-80
2022/04/15 08:37:13;;;;;;;29.73;19.57;;;12.90;99.90;;;;;;5070825;28;20463;-80
2022/04/15 08:39:39;;;;;;;29.80;18.53;;;13.10;99.90;;;;;;5072037;28;20640;-80
2022/04/15 08:42:07;;;;;;;37.37;20.73;;;12.90;99.90;;;;;;5068744;28;20832;-80
2022/04/15 08:44:33;;;;;;;41.13;22.37;;;13.10;99.90;;;;;;5034006;28;20509;-80
2022/04/15 08:47:02;;;;;;;35.33;21.07;;;13.20;99.90;;;;;;5056857;28;21003;-81
2022/04/15 08:49:29;;;;;;;37.20;19.63;;;13.30;99.90;;;;;;5049868;28;20224;-80
2022/04/15 08:51:55;;;;;;;33.90;19.00;;;13.30;99.90;;;;;;5053765;28;20421;-81
2022/04/15 08:54:21;;;;;;;33.30;19.50;;;13.20;99.90;;;;;;5110394;22;20453;-77
2022/04/15 08:56:48;;;;;;;27.97;15.63;;;13.30;99.90;;;;;;5022670;28;20490;-76
2022/04/15 08:59:15;;;;;;;26.80;14.50;;;13.30;99.90;;;;;;5030941;28;20419;-76
2022/04/15 09:01:41;;;;;;;22.33;13.13;;;13.00;99.90;;;;;;5045986;28;20428;-76
2022/04/15 09:04:07;;;;;;;19.47;11.93;;;13.00;99.90;;;;;;5054591;28;20413;-76
2022/04/15 09:06:34;;;;;;;17.87;11.77;;;13.00;99.90;;;;;;5041149;28;20453;-76
2022/04/15 09:09:14;;;;;;;19.20;12.37;;;13.30;99.90;;;;;;5035135;28;20792;-76
2022/04/15 09:11:44;;;;;;;18.60;11.70;;;13.70;99.90;;;;;;5036819;28;21068;-76
2022/04/15 09:14:12;;;;;;;19.77;12.00;;;15.30;99.90;;;;;;5038450;28;20428;-76
2022/04/15 09:16:43;;;;;;;15.43;10.43;;;16.10;99.90;;;;;;5013165;28;20552;-76
2022/04/15 09:19:11;;;;;;;17.50;11.07;;;18.20;99.90;;;;;;5015655;28;20465;-76
2022/04/15 09:21:41;;;;;;;15.10;11.17;;;19.70;99.90;;;;;;5033278;28;20498;-76
2022/04/15 09:24:08;;;;;;;16.63;11.27;;;20.80;99.90;;;;;;5033311;28;20422;-76
2022/04/15 09:26:36;;;;;;;16.50;11.13;;;20.10;99.90;;;;;;5032500;28;20821;-76
2022/04/15 09:29:02;;;;;;;17.50;13.23;;;19.40;99.90;;;;;;5041706;28;20767;-74
2022/04/15 09:31:28;;;;;;;18.90;12.27;;;18.70;99.90;;;;;;5049669;28;20440;-76
2022/04/15 09:33:55;;;;;;;18.63;13.10;;;20.00;99.90;;;;;;5050087;28;20861;-76
2022/04/15 09:36:25;;;;;;;16.97;12.90;;;20.00;99.90;;;;;;5049303;28;20238;-74
2022/04/15 09:38:56;;;;;;;15.33;12.10;;;20.70;99.90;;;;;;5049873;28;20506;-76
2022/04/15 09:41:23;;;;;;;17.23;13.40;;;20.00;99.90;;;;;;5049662;28;20755;-76
2022/04/15 09:43:53;;;;;;;15.90;13.10;;;19.00;99.90;;;;;;5049895;28;20510;-76
2022/04/15 09:46:20;;;;;;;18.87;13.37;;;18.20;99.90;;;;;;5049513;28;21035;-76
2022/04/15 09:49:07;;;;;;;16.20;12.43;;;19.60;99.90;;;;;;5051235;28;20424;-77
2022/04/15 09:51:37;;;;;;;16.20;11.70;;;23.20;99.90;;;;;;5033468;28;20936;-76
2022/04/15 09:54:09;;;;;;;15.63;12.40;;;23.80;99.50;;;;;;5036628;28;20475;-75
2022/04/15 09:56:36;;;;;;;12.30;11.00;;;24.20;92.60;;;;;;5036315;28;20474;-76
2022/04/15 09:59:08;;;;;;;15.00;12.00;;;24.50;91.30;;;;;;5032349;28;20996;-76
2022/04/15 10:01:39;;;;;;;13.47;10.90;;;26.40;82.20;;;;;;5017039;28;20423;-76
2022/04/15 10:04:05;;;;;;;12.73;10.53;;;26.30;73.50;;;;;;5016767;28;20458;-76
2022/04/15 10:06:31;;;;;;;11.60;10.40;;;27.50;67.20;;;;;;5016366;28;20434;-76
2022/04/15 10:09:01;;;;;;;11.70;10.00;;;29.30;61.20;;;;;;5017378;28;20453;-76
2022/04/15 10:11:28;;;;;;;10.20;9.20;;;29.50;56.70;;;;;;5016742;28;20461;-76
2022/04/15 10:13:55;;;;;;;10.30;9.30;;;29.60;52.40;;;;;;5016808;28;20407;-77
2022/04/15 10:16:22;;;;;;;10.50;8.50;;;30.70;50.40;;;;;;5016093;28;20466;-76
2022/04/15 10:18:50;;;;;;;9.50;8.50;;;30.70;51.00;;;;;;5016712;28;20419;-77
2022/04/15 10:21:16;;;;;;;8.73;7.83;;;31.00;48.10;;;;;;5016759;28;20422;-76
2022/04/15 10:23:42;;;;;;;8.83;7.97;;;30.60;45.40;;;;;;5016697;28;20415;-76
2022/04/15 10:26:09;;;;;;;8.20;7.20;;;31.10;45.50;;;;;;5016314;28;20439;-76
2022/04/15 10:28:44;;;;;;;7.47;5.97;;;29.40;44.80;;;;;;5016411;28;20434;-76
2022/04/15 10:31:16;;;;;;;7.30;6.40;;;28.50;45.90;;;;;;5017007;28;20411;-76
2022/04/15 10:33:43;;;;;;;12.93;6.10;;;29.60;46.90;;;;;;5016552;28;20422;-76
2022/04/15 10:36:16;;;;;;;7.20;6.37;;;29.80;46.70;;;;;;5016310;28;20455;-77
2022/04/15 10:39:06;;;;;;;5.67;5.00;;;32.00;46.70;;;;;;5016142;28;20422;-76
2022/04/15 10:41:41;;;;;;;6.77;6.10;;;31.00;41.00;;;;;;5003997;28;20430;-77
2022/04/15 10:44:10;;;;;;;6.80;6.10;;;30.80;42.70;;;;;;5016462;28;20415;-77
2022/04/15 10:46:37;;;;;;;7.97;7.17;;;28.90;44.70;;;;;;5015948;28;20439;-76
2022/04/15 10:49:21;;;;;;;6.70;6.00;;;28.90;47.60;;;;;;5016116;28;20419;-76
2022/04/15 10:51:50;;;;;;;7.10;5.20;;;30.10;45.20;;;;;;5016214;28;20431;-77
2022/04/15 10:54:48;;;;;;;5.97;4.10;;;30.70;44.20;;;;;;5015987;28;20423;-77
2022/04/15 10:57:17;;;;;;;4.90;3.73;;;32.60;42.20;;;;;;5015715;28;20506;-76
2022/04/15 11:02:45;;;;;;;4.13;3.63;;;33.70;39.50;;;;;;5034110;28;20410;-77
2022/04/15 11:05:31;;;;;;;5.87;3.53;;;33.60;37.80;;;;;;5015965;28;20454;-77
2022/04/15 11:08:11;;;;;;;3.80;3.20;;;33.80;38.00;;;;;;5015910;28;20507;-77
2022/04/15 11:10:42;;;;;;;4.00;3.27;;;33.80;38.40;;;;;;5015697;28;20427;-77
2022/04/15 11:13:09;;;;;;;4.17;3.67;;;33.90;38.60;;;;;;5015611;28;20423;-77
2022/04/15 11:16:04;;;;;;;4.83;3.70;;;33.50;36.60;;;;;;5015391;28;20980;-77
2022/04/15 11:18:52;;;;;;;5.80;4.80;;;33.70;36.90;;;;;;5015379;28;20435;-77
2022/04/15 11:21:27;;;;;;;4.93;4.43;;;32.20;36.10;;;;;;5015386;28;20426;-77
2022/04/15 11:23:58;;;;;;;5.97;4.40;;;31.20;37.10;;;;;;5015511;28;20440;-76
2022/04/15 11:26:25;;;;;;;5.27;4.10;;;32.20;37.80;;;;;;5015020;28;20462;-77
2022/04/15 11:28:53;;;;;;;4.73;3.53;;;32.30;37.30;;;;;;5015305;28;20443;-77
2022/04/15 11:31:22;;;;;;;6.00;4.90;;;32.50;38.50;;;;;;5015293;28;20411;-76
2022/04/15 11:33:49;;;;;;;7.23;5.40;;;32.90;38.30;;;;;;5015497;28;20418;-76
2022/04/15 11:36:17;;;;;;;6.07;5.47;;;31.50;36.60;;;;;;5015069;28;20851;-78
2022/04/15 11:38:47;;;;;;;5.23;4.40;;;31.00;38.00;;;;;;5014456;28;20764;-78
2022/04/15 11:41:18;;;;;;;6.03;4.70;;;29.90;40.50;;;;;;5017056;28;20415;-79
2022/04/15 11:44:05;;;;;;;7.37;5.90;;;29.90;40.50;;;;;;5017340;28;20773;-77
2022/04/15 11:46:41;;;;;;;8.07;6.17;;;28.20;40.60;;;;;;5017072;28;20439;-78
2022/04/15 11:49:13;;;;;;;6.77;6.07;;;27.50;42.80;;;;;;5017549;28;20465;-78
2022/04/15 11:51:39;;;;;;;6.80;6.10;;;28.50;42.80;;;;;;5017318;28;20472;-77
2022/04/15 11:54:05;;;;;;;6.53;5.73;;;30.80;42.70;;;;;;5016199;28;20423;-77
2022/04/15 11:56:34;;;;;;;6.60;6.00;;;31.80;39.70;;;;;;5017099;28;20226;-78
2022/04/15 11:59:00;;;;;;;7.00;6.00;;;31.90;38.50;;;;;;5017746;28;20180;-77
2022/04/15 12:01:31;;;;;;;8.60;7.20;;;32.10;37.00;;;;;;5017712;28;20419;-77
2022/04/15 12:03:58;;;;;;;9.80;7.43;;;30.70;37.80;;;;;;5016164;28;20224;-78
2022/04/15 12:06:25;;;;;;;9.37;8.47;;;30.00;40.40;;;;;;5016122;28;20454;-77
2022/04/15 12:08:52;;;;;;;9.93;7.70;;;28.50;39.50;;;;;;5016812;28;20431;-78
2022/04/15 12:11:25;;;;;;;8.63;7.73;;;27.60;41.40;;;;;;5015099;28;20438;-77
2022/04/15 12:13:56;;;;;;;9.50;7.43;;;27.50;42.40;;;;;;5014862;28;20427;-78
2022/04/15 12:16:22;;;;;;;9.03;7.60;;;26.70;42.40;;;;;;5014646;28;20467;-77
2022/04/15 12:18:49;;;;;;;10.70;8.50;;;26.40;44.60;;;;;;5015360;28;20961;-78
2022/04/15 12:21:15;;;;;;;8.90;7.23;;;25.90;44.20;;;;;;5014494;28;20419;-77
2022/04/15 12:23:59;;;;;;;9.63;7.80;;;26.60;46.90;;;;;;5014815;28;20415;-78
2022/04/15 12:26:24;;;;;;;9.77;7.13;;;29.40;44.50;;;;;;5014543;28;20454;-79
2022/04/15 12:31:34;;;;;;;9.20;6.87;;;30.10;40.40;;;;;;5033055;28;20191;-78
2022/04/15 12:34:02;;;;;;;7.50;6.80;;;31.20;41.10;;;;;;5016936;28;20803;-77
2022/04/15 12:36:46;;;;;;;7.17;6.47;;;31.00;39.30;;;;;;5014586;28;20208;-78
2022/04/15 12:39:14;;;;;;;7.30;6.60;;;31.60;38.80;;;;;;5014593;28;20823;-76
2022/04/15 12:41:48;;;;;;;7.43;6.63;;;32.10;38.40;;;;;;5039044;28;20418;-79
2022/04/15 12:44:16;;;;;;;7.00;6.07;;;33.60;38.50;;;;;;5030589;28;21043;-79